Time;durP1;ratioP1;P1;durP2;ratioP2;P2;SDS_P1;SDS_P2;PMS_P1;PMS_P2;Temp;Humidity;BMP_temperature;BMP_pressure;BME280_temperature;BME280_humidity;BME280_pressure;Samples;Min_cycle;Max_cycle;Signal;HPM_P1;HPM_P2
2021/12/03 00:00:51;;;;;;;1.67;0.70;;;19.80;47.20;;;;;;2287204;62;20232;-65
2021/12/03 00:03:18;;;;;;;0.63;0.57;;;19.70;47.10;;;;;;2287056;62;20718;-65
2021/12/03 00:05:44;;;;;;;0.95;0.70;;;19.70;47.10;;;;;;2287035;62;20203;-65
2021/12/03 00:08:10;;;;;;;1.38;0.80;;;19.70;47.70;;;;;;2287107;62;20154;-65
2021/12/03 00:10:39;;;;;;;1.25;0.85;;;19.70;47.10;;;;;;2287133;62;20158;-64
2021/12/03 00:13:07;;;;;;;1.40;0.80;;;19.70;47.10;;;;;;2287120;62;20203;-65
2021/12/03 00:15:34;;;;;;;1.42;0.70;;;19.70;47.70;;;;;;2287111;62;20656;-65
2021/12/03 00:18:00;;;;;;;1.30;0.70;;;19.70;47.10;;;;;;2287084;62;20174;-65
2021/12/03 00:20:26;;;;;;;1.92;0.88;;;19.60;47.00;;;;;;2287095;62;20162;-65
2021/12/03 00:22:57;;;;;;;1.15;0.90;;;19.60;47.00;;;;;;2287118;62;20382;-66
2021/12/03 00:25:24;;;;;;;1.52;0.60;;;19.60;47.70;;;;;;2286984;62;20190;-65
2021/12/03 00:27:49;;;;;;;0.98;0.70;;;19.60;47.10;;;;;;2287024;62;20231;-65
2021/12/03 00:30:18;;;;;;;0.88;0.57;;;19.60;47.10;;;;;;2287035;62;20868;-65
2021/12/03 00:32:45;;;;;;;2.40;0.80;;;19.60;47.00;;;;;;2286952;62;20259;-65
2021/12/03 00:35:12;;;;;;;0.77;0.77;;;19.60;47.00;;;;;;2287004;62;20247;-65
2021/12/03 00:37:39;;;;;;;2.25;0.68;;;19.60;47.00;;;;;;2286908;62;20575;-65
2021/12/03 00:40:07;;;;;;;2.00;0.80;;;19.60;47.00;;;;;;2286988;62;20158;-65
2021/12/03 00:42:34;;;;;;;1.52;0.80;;;19.50;47.00;;;;;;2286966;62;20690;-65
2021/12/03 00:45:01;;;;;;;0.63;0.63;;;19.40;47.00;;;;;;2286841;62;20244;-65
2021/12/03 00:47:27;;;;;;;1.48;0.82;;;19.50;47.00;;;;;;2286895;62;20188;-65
2021/12/03 00:49:53;;;;;;;1.75;0.60;;;19.50;47.10;;;;;;2286888;62;20174;-65
2021/12/03 00:52:19;;;;;;;2.25;0.77;;;19.50;47.00;;;;;;2286916;62;20545;-65
2021/12/03 00:54:45;;;;;;;1.65;0.88;;;19.50;47.00;;;;;;2286850;62;20154;-65
2021/12/03 00:57:11;;;;;;;1.00;0.68;;;19.40;47.00;;;;;;2286723;62;20186;-65
2021/12/03 00:59:37;;;;;;;0.95;0.70;;;19.50;47.10;;;;;;2286537;62;20139;-65
2021/12/03 01:02:03;;;;;;;1.40;0.85;;;19.50;47.00;;;;;;2286777;62;20183;-65
2021/12/03 01:04:29;;;;;;;1.40;0.65;;;19.40;47.00;;;;;;2286682;62;20214;-65
2021/12/03 01:06:54;;;;;;;0.90;0.70;;;19.40;47.00;;;;;;2286727;62;20216;-65
2021/12/03 01:09:21;;;;;;;1.02;0.70;;;19.50;47.10;;;;;;2286747;62;20201;-64
2021/12/03 01:11:50;;;;;;;1.80;0.70;;;19.40;47.00;;;;;;2286758;62;20210;-65
2021/12/03 01:14:16;;;;;;;0.98;0.82;;;19.50;47.10;;;;;;2286759;62;20211;-64
2021/12/03 01:16:43;;;;;;;1.20;0.60;;;19.40;47.00;;;;;;2286663;62;20658;-65
2021/12/03 01:19:09;;;;;;;1.75;0.70;;;19.40;47.00;;;;;;2286729;62;20209;-65
2021/12/03 01:21:35;;;;;;;2.08;0.80;;;19.40;47.00;;;;;;2286718;62;20277;-65
2021/12/03 01:24:01;;;;;;;1.58;0.90;;;19.40;47.00;;;;;;2286632;62;20640;-65
2021/12/03 01:26:27;;;;;;;2.03;0.73;;;19.40;47.00;;;;;;2286617;62;20160;-65
2021/12/03 01:28:53;;;;;;;0.98;0.65;;;19.30;47.00;;;;;;2286676;62;20162;-65
2021/12/03 01:31:19;;;;;;;1.42;0.60;;;19.30;47.00;;;;;;2286668;62;20256;-64
2021/12/03 01:33:47;;;;;;;1.27;0.70;;;19.30;47.00;;;;;;2286576;62;20670;-64
2021/12/03 01:36:14;;;;;;;1.42;0.93;;;19.30;46.90;;;;;;2286569;62;20169;-66
2021/12/03 01:38:40;;;;;;;1.15;0.77;;;19.30;47.00;;;;;;2286663;62;20178;-65
2021/12/03 01:41:06;;;;;;;1.30;0.60;;;19.30;47.00;;;;;;2286700;62;20170;-65
2021/12/03 01:43:32;;;;;;;1.02;0.70;;;19.30;47.00;;;;;;2286629;62;20170;-65
2021/12/03 01:46:05;;;;;;;0.98;0.60;;;19.30;47.00;;;;;;2286467;62;20689;-65
2021/12/03 01:48:31;;;;;;;0.77;0.63;;;19.30;46.90;;;;;;2286557;62;20324;-65
2021/12/03 01:50:58;;;;;;;0.80;0.43;;;19.30;47.00;;;;;;2286597;62;20648;-65
2021/12/03 01:53:28;;;;;;;2.03;0.75;;;19.30;47.00;;;;;;2286603;62;20600;-65
2021/12/03 01:55:58;;;;;;;1.20;0.65;;;19.30;47.00;;;;;;2286550;62;20173;-65
2021/12/03 01:58:24;;;;;;;1.17;0.70;;;19.30;47.00;;;;;;2286533;62;20194;-65
2021/12/03 02:00:56;;;;;;;0.90;0.60;;;19.30;47.00;;;;;;2286509;62;20287;-65
2021/12/03 02:03:25;;;;;;;1.77;0.80;;;19.30;46.90;;;;;;2286452;62;20174;-66
2021/12/03 02:05:52;;;;;;;1.10;0.63;;;19.10;46.90;;;;;;2286400;62;20257;-66
2021/12/03 02:08:18;;;;;;;1.05;0.80;;;19.20;46.90;;;;;;2286482;62;20191;-65
2021/12/03 02:10:45;;;;;;;0.85;0.80;;;19.20;46.90;;;;;;2285930;62;20683;-65
2021/12/03 02:13:13;;;;;;;1.17;0.77;;;19.20;46.90;;;;;;2286450;62;20634;-65
2021/12/03 02:15:41;;;;;;;0.95;0.65;;;19.20;46.90;;;;;;2286437;62;20707;-65
2021/12/03 02:18:08;;;;;;;1.30;0.65;;;19.10;46.90;;;;;;2286364;62;20199;-65
2021/12/03 02:20:34;;;;;;;1.63;0.60;;;19.20;47.50;;;;;;2286361;62;20162;-65
2021/12/03 02:23:00;;;;;;;1.10;0.60;;;19.20;46.90;;;;;;2286361;62;20205;-65
2021/12/03 02:25:26;;;;;;;1.40;0.70;;;19.20;46.90;;;;;;2286255;62;20363;-66
2021/12/03 02:27:55;;;;;;;1.52;0.70;;;19.10;46.90;;;;;;2286301;62;20199;-66
2021/12/03 02:30:23;;;;;;;0.85;0.70;;;19.10;46.90;;;;;;2286310;62;20170;-66
2021/12/03 02:32:51;;;;;;;1.35;0.70;;;19.20;46.90;;;;;;2286183;62;20223;-66
2021/12/03 02:35:17;;;;;;;2.40;0.90;;;19.10;46.90;;;;;;2286227;62;20237;-65
2021/12/03 02:37:44;;;;;;;1.55;0.63;;;19.10;46.90;;;;;;2286251;62;20166;-65
2021/12/03 02:40:11;;;;;;;2.25;0.80;;;19.10;46.90;;;;;;2286249;62;20233;-65
2021/12/03 02:42:38;;;;;;;0.88;0.60;;;19.10;46.90;;;;;;2286272;62;20187;-65
2021/12/03 02:45:05;;;;;;;1.50;0.75;;;19.00;46.80;;;;;;2286100;62;20174;-65
2021/12/03 02:47:31;;;;;;;1.52;0.70;;;19.10;46.90;;;;;;2286208;62;20182;-65
2021/12/03 02:49:57;;;;;;;1.02;0.50;;;19.10;46.80;;;;;;2286261;62;20173;-65
2021/12/03 02:52:23;;;;;;;1.00;0.50;;;19.10;47.50;;;;;;2286200;62;20158;-65
2021/12/03 02:54:49;;;;;;;0.90;0.70;;;19.10;46.90;;;;;;2286284;62;20203;-65
2021/12/03 02:57:15;;;;;;;1.30;0.70;;;19.10;46.80;;;;;;2286143;62;20332;-65
2021/12/03 02:59:41;;;;;;;1.63;0.68;;;19.00;46.80;;;;;;2286209;62;20290;-65
2021/12/03 03:02:08;;;;;;;1.63;0.70;;;19.10;46.80;;;;;;2286118;62;20195;-65
2021/12/03 03:04:34;;;;;;;1.73;0.77;;;19.10;46.80;;;;;;2286084;62;20181;-66
2021/12/03 03:07:00;;;;;;;1.98;0.85;;;19.10;46.80;;;;;;2286066;62;20188;-65
2021/12/03 03:09:26;;;;;;;1.33;0.60;;;19.10;46.90;;;;;;2286126;62;20229;-66
2021/12/03 03:11:53;;;;;;;0.98;0.77;;;19.10;46.80;;;;;;2286122;62;20184;-65
2021/12/03 03:14:20;;;;;;;1.60;0.90;;;19.10;46.80;;;;;;2286090;62;20178;-66
2021/12/03 03:16:46;;;;;;;0.98;0.60;;;19.00;46.70;;;;;;2286114;62;20162;-65
2021/12/03 03:19:16;;;;;;;1.83;0.80;;;19.00;46.80;;;;;;2286040;62;20329;-65
2021/12/03 03:21:43;;;;;;;2.85;0.75;;;19.10;46.80;;;;;;2286319;62;20307;-66
2021/12/03 03:24:10;;;;;;;0.77;0.70;;;19.00;46.70;;;;;;2287370;62;20740;-64
2021/12/03 03:26:39;;;;;;;1.05;0.70;;;19.00;47.40;;;;;;2287405;62;20705;-65
2021/12/03 03:29:07;;;;;;;1.00;0.75;;;19.10;46.70;;;;;;2287430;62;20732;-65
2021/12/03 03:31:34;;;;;;;1.95;0.73;;;19.00;46.70;;;;;;2287347;62;20270;-65
2021/12/03 03:34:01;;;;;;;1.55;0.70;;;19.00;46.70;;;;;;2287328;62;20212;-65
2021/12/03 03:36:30;;;;;;;1.48;0.82;;;19.00;46.70;;;;;;2287302;62;20166;-65
2021/12/03 03:38:56;;;;;;;2.40;0.70;;;19.00;46.70;;;;;;2287381;62;20670;-65
2021/12/03 03:41:22;;;;;;;2.60;0.80;;;19.00;46.70;;;;;;2287361;62;20316;-66
2021/12/03 03:43:48;;;;;;;1.55;0.90;;;19.00;46.60;;;;;;2287285;62;20199;-65
2021/12/03 03:46:14;;;;;;;1.60;0.70;;;19.00;46.60;;;;;;2287161;62;20575;-65
2021/12/03 03:48:40;;;;;;;0.90;0.80;;;19.00;46.70;;;;;;2287232;62;20154;-65
2021/12/03 03:51:06;;;;;;;0.90;0.70;;;19.00;46.70;;;;;;2287289;62;20187;-66
2021/12/03 03:53:32;;;;;;;2.60;0.65;;;18.90;46.60;;;;;;2287265;62;20146;-65
2021/12/03 03:55:58;;;;;;;1.50;0.90;;;19.00;46.70;;;;;;2287201;62;20170;-65
2021/12/03 03:58:24;;;;;;;1.55;0.90;;;19.00;46.70;;;;;;2287178;62;20142;-65
2021/12/03 04:00:50;;;;;;;1.20;0.80;;;19.00;46.70;;;;;;2287163;62;20343;-65
2021/12/03 04:03:15;;;;;;;1.20;0.90;;;18.90;46.60;;;;;;2287213;62;20795;-65
2021/12/03 04:05:41;;;;;;;1.80;1.05;;;19.00;46.60;;;;;;2286982;62;20158;-65
2021/12/03 04:08:08;;;;;;;0.98;0.85;;;18.90;46.60;;;;;;2287095;62;20162;-65
2021/12/03 04:10:34;;;;;;;1.20;0.70;;;19.00;46.60;;;;;;2287108;62;20669;-66
2021/12/03 04:13:00;;;;;;;1.48;0.73;;;18.90;46.60;;;;;;2287176;62;20194;-66
2021/12/03 04:15:27;;;;;;;1.33;0.82;;;19.00;46.60;;;;;;2287171;62;20150;-66
2021/12/03 04:17:53;;;;;;;0.98;0.70;;;18.90;46.60;;;;;;2287075;62;20166;-66
2021/12/03 04:20:20;;;;;;;1.55;0.90;;;18.90;46.60;;;;;;2287031;62;20671;-65
2021/12/03 04:22:46;;;;;;;0.80;0.75;;;18.90;46.60;;;;;;2287150;62;20216;-66
2021/12/03 04:25:16;;;;;;;1.40;0.82;;;18.90;47.20;;;;;;2287075;62;20165;-65
2021/12/03 04:27:44;;;;;;;1.20;0.80;;;18.90;46.60;;;;;;2287027;62;20213;-64
2021/12/03 04:30:15;;;;;;;2.67;0.90;;;18.90;46.60;;;;;;2287035;62;20217;-65
2021/12/03 04:32:41;;;;;;;2.10;0.90;;;18.90;46.50;;;;;;2286865;62;20154;-65
2021/12/03 04:35:08;;;;;;;1.23;0.90;;;18.80;47.10;;;;;;2286702;62;20170;-65
2021/12/03 04:37:34;;;;;;;1.77;1.05;;;18.90;47.20;;;;;;2286866;62;20606;-65
2021/12/03 04:40:00;;;;;;;1.35;0.90;;;18.90;46.50;;;;;;2286905;62;20195;-65
2021/12/03 04:42:26;;;;;;;1.88;1.00;;;18.80;46.50;;;;;;2287098;62;20580;-65
2021/12/03 04:44:52;;;;;;;0.80;0.70;;;18.90;46.50;;;;;;2286778;62;20163;-65
2021/12/03 04:47:18;;;;;;;1.98;1.08;;;18.90;46.60;;;;;;2286861;62;20212;-65
2021/12/03 04:49:43;;;;;;;2.05;1.02;;;18.90;46.60;;;;;;2286875;62;20162;-66
2021/12/03 04:52:09;;;;;;;2.35;0.98;;;18.90;46.50;;;;;;2286891;62;20216;-65
2021/12/03 04:54:35;;;;;;;1.05;0.80;;;18.80;46.50;;;;;;2286882;62;20865;-66
2021/12/03 04:57:01;;;;;;;1.50;0.85;;;18.80;46.50;;;;;;2286853;62;20213;-64
2021/12/03 04:59:27;;;;;;;0.95;0.80;;;18.80;46.50;;;;;;2286879;62;20287;-65
2021/12/03 05:01:56;;;;;;;1.27;0.90;;;18.90;46.50;;;;;;2286852;62;20171;-65
2021/12/03 05:04:22;;;;;;;1.10;0.85;;;18.80;46.50;;;;;;2286729;62;20275;-65
2021/12/03 05:09:20;;;;;;;1.10;0.82;;;18.80;46.50;;;;;;2286794;62;20221;-65
2021/12/03 05:11:46;;;;;;;1.30;0.98;;;18.80;46.50;;;;;;2286837;62;20157;-65
2021/12/03 05:14:12;;;;;;;1.48;0.90;;;18.80;46.50;;;;;;2286800;62;20204;-65
2021/12/03 05:16:40;;;;;;;1.67;0.95;;;18.80;46.50;;;;;;2286803;62;20709;-65
2021/12/03 05:19:06;;;;;;;1.45;0.80;;;18.80;46.50;;;;;;2286762;62;20172;-65
2021/12/03 05:21:31;;;;;;;1.13;0.80;;;18.70;46.40;;;;;;2286734;62;20657;-65
2021/12/03 05:23:57;;;;;;;1.30;0.73;;;18.70;46.40;;;;;;2286731;62;20162;-65
2021/12/03 05:26:23;;;;;;;1.30;0.90;;;18.70;46.40;;;;;;2286598;62;20258;-65
2021/12/03 05:28:50;;;;;;;2.25;0.77;;;18.80;46.40;;;;;;2286687;62;20274;-65
2021/12/03 05:31:16;;;;;;;1.90;1.02;;;18.80;46.50;;;;;;2286710;62;20678;-65
2021/12/03 05:33:41;;;;;;;1.98;1.10;;;18.80;46.40;;;;;;2286549;62;20394;-65
2021/12/03 05:36:07;;;;;;;2.25;1.00;;;18.80;46.30;;;;;;2286532;62;20295;-65
2021/12/03 05:38:33;;;;;;;1.20;0.70;;;18.90;46.40;;;;;;2286626;62;20150;-65
2021/12/03 05:40:59;;;;;;;2.08;0.80;;;18.90;46.30;;;;;;2286590;62;20239;-65
2021/12/03 05:43:25;;;;;;;1.45;0.65;;;19.00;46.30;;;;;;2286602;62;20195;-65
2021/12/03 05:45:51;;;;;;;1.98;0.82;;;19.10;46.20;;;;;;2286300;62;20284;-65
2021/12/03 05:48:17;;;;;;;1.63;0.73;;;19.20;46.20;;;;;;2286565;62;20319;-65
2021/12/03 05:50:43;;;;;;;0.82;0.60;;;19.30;46.10;;;;;;2286565;62;20167;-66
2021/12/03 05:53:09;;;;;;;2.28;0.85;;;19.40;46.00;;;;;;2286607;62;20783;-66
2021/12/03 05:55:35;;;;;;;1.48;0.90;;;19.50;45.90;;;;;;2286563;62;20153;-65
2021/12/03 05:58:01;;;;;;;1.20;0.70;;;19.60;45.80;;;;;;2286451;62;20134;-65
2021/12/03 06:00:31;;;;;;;1.27;0.63;;;19.70;45.70;;;;;;2286592;62;20150;-67
2021/12/03 06:02:59;;;;;;;1.48;0.73;;;19.80;45.60;;;;;;2286477;62;20187;-66
2021/12/03 06:05:27;;;;;;;1.25;0.70;;;19.80;45.50;;;;;;2286312;62;20199;-65
2021/12/03 06:07:53;;;;;;;0.93;0.55;;;20.00;45.50;;;;;;2286505;62;20632;-65
2021/12/03 06:10:19;;;;;;;0.80;0.60;;;20.00;45.40;;;;;;2286451;62;20178;-65
2021/12/03 06:12:46;;;;;;;2.17;0.75;;;20.00;45.30;;;;;;2286431;62;20310;-65
2021/12/03 06:15:13;;;;;;;1.42;0.75;;;20.10;45.30;;;;;;2286390;62;20270;-66
2021/12/03 06:17:40;;;;;;;1.00;0.80;;;20.10;45.20;;;;;;2286362;62;20610;-66
2021/12/03 06:20:08;;;;;;;1.10;0.60;;;20.20;45.20;;;;;;2286429;62;20175;-65
2021/12/03 06:22:34;;;;;;;1.27;0.95;;;20.20;45.10;;;;;;2286299;62;20759;-66
2021/12/03 06:25:01;;;;;;;0.55;0.35;;;20.20;45.10;;;;;;2286328;62;20313;-65
2021/12/03 06:27:29;;;;;;;1.58;0.90;;;20.20;45.00;;;;;;2286268;62;20339;-65
2021/12/03 06:29:56;;;;;;;1.58;0.80;;;20.30;45.00;;;;;;2286341;62;20166;-66
2021/12/03 06:32:23;;;;;;;1.42;0.88;;;20.30;45.00;;;;;;2286294;62;20842;-66
2021/12/03 06:34:49;;;;;;;1.10;0.55;;;20.30;44.90;;;;;;2286207;62;20707;-66
2021/12/03 06:37:15;;;;;;;1.90;1.13;;;20.30;44.90;;;;;;2286231;62;20189;-66
2021/12/03 06:39:41;;;;;;;1.70;0.70;;;20.30;44.80;;;;;;2286298;62;20188;-66
2021/12/03 06:42:07;;;;;;;1.35;0.60;;;20.30;44.80;;;;;;2286262;62;20170;-66
2021/12/03 06:44:33;;;;;;;2.40;0.90;;;20.30;44.80;;;;;;2286227;62;20168;-66
2021/12/03 06:47:02;;;;;;;1.20;0.70;;;20.40;44.80;;;;;;2286167;62;20666;-66
2021/12/03 06:49:33;;;;;;;1.50;0.80;;;20.40;44.70;;;;;;2286194;62;20180;-66
2021/12/03 06:52:05;;;;;;;0.65;0.50;;;20.40;44.70;;;;;;2286215;62;20286;-66
2021/12/03 06:54:33;;;;;;;2.67;0.80;;;20.40;44.70;;;;;;2286219;62;20200;-66
2021/12/03 06:57:02;;;;;;;1.05;0.70;;;20.40;44.70;;;;;;2286543;62;20772;-66
2021/12/03 06:59:28;;;;;;;1.10;0.80;;;20.40;44.60;;;;;;2287476;62;20414;-66
2021/12/03 07:01:54;;;;;;;1.35;0.77;;;20.40;44.60;;;;;;2287518;62;20273;-66
2021/12/03 07:04:21;;;;;;;1.55;0.60;;;20.40;44.60;;;;;;2287461;62;20679;-66
2021/12/03 07:06:47;;;;;;;2.40;0.77;;;20.40;44.60;;;;;;2287419;62;20185;-66
2021/12/03 07:09:13;;;;;;;2.95;0.65;;;20.40;44.60;;;;;;2287480;62;20275;-65
2021/12/03 07:11:40;;;;;;;1.42;0.70;;;20.40;44.60;;;;;;2287522;62;20703;-66
2021/12/03 07:14:06;;;;;;;1.40;0.68;;;20.40;44.60;;;;;;2287532;62;20162;-65
2021/12/03 07:16:32;;;;;;;2.10;0.60;;;20.40;44.60;;;;;;2287490;62;20166;-66
2021/12/03 07:19:00;;;;;;;1.02;0.82;;;20.40;44.60;;;;;;2287419;62;20243;-66
2021/12/03 07:21:26;;;;;;;1.65;0.63;;;20.40;44.60;;;;;;2287440;62;20707;-65
2021/12/03 07:23:53;;;;;;;1.58;0.70;;;20.40;44.50;;;;;;2287426;62;20175;-65
2021/12/03 07:26:20;;;;;;;2.08;0.80;;;20.40;45.10;;;;;;2287412;62;20170;-66
2021/12/03 07:28:47;;;;;;;1.55;0.60;;;20.40;44.40;;;;;;2287424;62;20158;-65
2021/12/03 07:31:13;;;;;;;1.13;0.80;;;20.30;44.40;;;;;;2287412;62;20178;-66
2021/12/03 07:33:40;;;;;;;1.42;0.63;;;20.40;44.50;;;;;;2287555;62;20274;-65
2021/12/03 07:36:06;;;;;;;1.70;0.65;;;20.30;44.40;;;;;;2288004;62;20355;-65
2021/12/03 07:38:33;;;;;;;0.70;0.50;;;20.40;44.50;;;;;;2287354;62;20192;-66
2021/12/03 07:40:59;;;;;;;1.92;0.65;;;20.40;44.50;;;;;;2287338;62;20339;-66
2021/12/03 07:43:25;;;;;;;2.53;0.70;;;20.40;44.60;;;;;;2287591;62;20215;-66
2021/12/03 07:45:51;;;;;;;3.38;0.90;;;20.40;44.60;;;;;;2287468;62;20150;-66
2021/12/03 07:48:21;;;;;;;1.65;0.70;;;20.40;44.60;;;;;;2287274;62;20183;-66
2021/12/03 07:50:47;;;;;;;1.08;0.70;;;20.40;44.70;;;;;;2287277;62;20154;-66
2021/12/03 07:53:16;;;;;;;2.20;0.85;;;20.50;44.70;;;;;;2287260;62;20592;-66
2021/12/03 07:55:43;;;;;;;1.85;1.10;;;20.40;44.70;;;;;;2287268;62;20173;-67
2021/12/03 07:58:09;;;;;;;2.85;0.95;;;20.50;44.80;;;;;;2287209;62;20266;-67
2021/12/03 08:00:35;;;;;;;3.60;1.00;;;20.60;44.80;;;;;;2287236;62;20162;-66
2021/12/03 08:03:01;;;;;;;1.52;0.60;;;20.50;44.80;;;;;;2287169;62;20161;-66
2021/12/03 08:05:27;;;;;;;3.03;0.90;;;20.60;44.90;;;;;;2287096;62;20249;-66
2021/12/03 08:07:53;;;;;;;2.70;0.80;;;20.60;44.90;;;;;;2287129;62;20317;-65
2021/12/03 08:10:19;;;;;;;1.35;0.60;;;20.60;44.90;;;;;;2287184;62;20203;-66
2021/12/03 08:12:46;;;;;;;4.35;1.25;;;20.60;45.00;;;;;;2287143;62;20624;-66
2021/12/03 08:15:14;;;;;;;3.80;0.80;;;20.60;44.90;;;;;;2287164;62;20157;-66
2021/12/03 08:17:40;;;;;;;2.05;0.70;;;20.60;45.50;;;;;;2287165;62;20308;-66
2021/12/03 08:20:09;;;;;;;2.10;1.02;;;20.60;44.90;;;;;;2287076;62;20182;-66
2021/12/03 08:22:35;;;;;;;2.00;0.98;;;20.60;44.90;;;;;;2287113;62;20222;-66
2021/12/03 08:25:02;;;;;;;2.33;1.13;;;20.60;45.00;;;;;;2287049;62;20170;-66
2021/12/03 08:27:28;;;;;;;1.90;0.70;;;20.50;44.90;;;;;;2287082;62;20194;-66
2021/12/03 08:29:54;;;;;;;2.63;0.80;;;20.50;45.00;;;;;;2287040;62;20162;-67
2021/12/03 08:32:20;;;;;;;2.42;0.90;;;20.40;45.10;;;;;;2287097;62;20733;-66
2021/12/03 08:34:47;;;;;;;2.30;0.80;;;20.40;45.10;;;;;;2279557;62;20289;-65
2021/12/03 08:37:12;;;;;;;3.75;1.08;;;20.30;45.80;;;;;;2286984;62;20162;-66
2021/12/03 08:39:39;;;;;;;2.85;0.90;;;20.30;45.20;;;;;;2281268;62;20259;-65
2021/12/03 08:42:07;;;;;;;1.67;0.70;;;20.20;45.20;;;;;;2278809;62;20303;-67
2021/12/03 08:44:33;;;;;;;3.05;1.02;;;20.20;45.30;;;;;;2278737;62;20184;-65
2021/12/03 08:47:04;;;;;;;1.10;0.60;;;20.10;45.30;;;;;;2278649;62;20311;-65
2021/12/03 08:49:44;;;;;;;2.20;0.80;;;20.10;45.40;;;;;;2278914;62;20685;-66
2021/12/03 08:54:52;;;;;;;2.45;0.70;;;20.00;45.50;;;;;;2277151;62;20195;-67
2021/12/03 08:57:24;;;;;;;2.72;0.90;;;20.00;45.60;;;;;;2284957;62;20683;-65
2021/12/03 08:59:52;;;;;;;4.03;0.88;;;19.90;45.70;;;;;;2283134;62;20280;-65
2021/12/03 09:02:19;;;;;;;5.68;1.05;;;19.90;45.70;;;;;;2285845;62;20166;-65
2021/12/03 09:04:45;;;;;;;3.42;0.82;;;19.90;45.80;;;;;;2283959;62;20657;-65
2021/12/03 09:07:11;;;;;;;3.95;0.90;;;19.80;45.80;;;;;;2278556;62;20208;-64
2021/12/03 09:09:37;;;;;;;2.85;0.82;;;19.80;45.90;;;;;;2285302;62;20633;-66
2021/12/03 09:12:04;;;;;;;2.40;0.90;;;19.80;45.90;;;;;;2280725;62;20167;-65
2021/12/03 09:14:43;;;;;;;1.80;0.73;;;19.80;45.90;;;;;;2280882;62;20198;-64
2021/12/03 09:20:06;;;;;;;1.42;0.60;;;19.80;46.00;;;;;;2286434;62;20754;-65
2021/12/03 09:25:05;;;;;;;1.67;0.75;;;19.70;46.10;;;;;;2286710;62;20316;-65
2021/12/03 09:27:34;;;;;;;3.22;0.70;;;19.70;46.10;;;;;;2286745;62;20240;-65
2021/12/03 09:30:02;;;;;;;4.22;1.00;;;19.60;46.10;;;;;;2286684;62;20342;-65
2021/12/03 09:32:31;;;;;;;4.35;1.35;;;19.60;46.10;;;;;;2284438;62;20892;-64
2021/12/03 09:34:58;;;;;;;2.75;1.08;;;19.60;46.10;;;;;;2277507;62;20307;-64
2021/12/03 09:37:24;;;;;;;3.33;1.30;;;19.50;46.20;;;;;;2277792;62;20247;-63
2021/12/03 09:39:51;;;;;;;2.40;0.85;;;19.60;46.20;;;;;;2282683;62;20229;-65
2021/12/03 09:42:20;;;;;;;2.63;0.90;;;19.50;46.20;;;;;;2285844;62;20189;-64
2021/12/03 09:44:50;;;;;;;2.75;1.05;;;19.60;46.30;;;;;;2278826;62;20276;-65
2021/12/03 09:47:19;;;;;;;2.78;0.75;;;19.50;46.30;;;;;;2278295;62;20704;-65
2021/12/03 09:49:47;;;;;;;4.57;0.80;;;19.50;46.40;;;;;;2278282;62;20175;-65
2021/12/03 09:54:46;;;;;;;1.60;0.70;;;19.40;46.40;;;;;;2278323;62;20202;-64
2021/12/03 09:57:30;;;;;;;2.13;0.75;;;19.50;46.50;;;;;;2278402;62;20234;-65
2021/12/03 10:13:16;;;;;;;2.83;1.65;;;19.50;46.70;;;;;;2278283;62;20230;-65
2021/12/03 10:15:57;;;;;;;2.25;0.88;;;19.40;46.70;;;;;;2278290;62;20193;-63
2021/12/03 10:18:41;;;;;;;5.38;1.40;;;19.40;46.70;;;;;;2274605;62;20234;-64
2021/12/03 10:21:22;;;;;;;3.85;1.58;;;19.40;46.70;;;;;;2283187;62;20182;-65
2021/12/03 10:24:23;;;;;;;3.13;0.88;;;19.40;46.80;;;;;;2285416;62;20154;-64
2021/12/03 10:48:47;;;;;;;2.92;1.35;;;19.40;47.20;;;;;;2258370;63;20180;-65
2021/12/03 10:51:33;;;;;;;7.55;1.55;;;19.40;47.20;;;;;;2254381;63;21135;-65
2021/12/03 10:57:45;;;;;;;4.07;1.45;;;19.40;47.20;;;;;;2258523;63;20064;-65
2021/12/03 10:59:51;;;;;;;2.85;1.40;;;19.40;47.30;;;;;;2250355;63;20322;-65
2021/12/03 11:02:49;;;;;;;3.25;1.20;;;19.40;47.30;;;;;;2253934;63;20181;-65
2021/12/03 11:05:48;;;;;;;3.53;1.30;;;19.40;47.40;;;;;;2253685;63;20200;-64
2021/12/03 11:25:23;;;;;;;5.88;2.15;;;19.30;47.50;;;;;;2279246;62;20061;-65
2021/12/03 11:30:09;;;;;;;4.38;2.10;;;19.30;47.40;;;;;;2279217;62;20198;-64
2021/12/03 11:55:36;;;;;;;6.78;2.13;;;19.30;47.70;;;;;;2279107;62;20305;-64
2021/12/03 12:43:37;;;;;;;6.95;1.88;;;19.30;48.00;;;;;;2278872;62;20162;-65
2021/12/03 13:21:41;;;;;;;8.50;2.08;;;19.30;48.30;;;;;;2278510;62;20174;-69
2021/12/03 14:09:53;;;;;;;5.63;2.10;;;19.40;47.90;;;;;;2244910;63;20177;-64
2021/12/03 14:24:13;;;;;;;3.97;1.63;;;19.40;47.80;;;;;;2251043;62;20167;-65
2021/12/03 14:55:25;;;;;;;5.25;1.70;;;19.40;47.30;;;;;;2260586;63;20172;-66
2021/12/03 14:57:59;;;;;;;3.88;1.60;;;19.40;47.40;;;;;;2275851;63;20240;-64
2021/12/03 15:08:24;;;;;;;6.85;2.03;;;19.40;47.30;;;;;;2277937;63;20163;-65
2021/12/03 15:13:53;;;;;;;5.40;1.30;;;19.40;47.40;;;;;;2277931;63;20199;-66
2021/12/03 20:38:23;;;;;;;2.28;1.65;;;20.10;47.60;;;;;;2293198;62;20245;-65
2021/12/03 20:40:53;;;;;;;2.08;1.67;;;20.10;47.20;;;;;;2293149;62;20587;-66
2021/12/03 20:45:56;;;;;;;2.92;2.17;;;20.20;48.80;;;;;;2284525;62;20178;-66
2021/12/03 20:53:55;;;;;;;1.75;1.50;;;20.20;49.60;;;;;;2292640;62;20228;-65
2021/12/03 21:09:53;;;;;;;1.90;1.43;;;20.40;49.40;;;;;;2289154;62;20187;-67
2021/12/03 21:12:31;;;;;;;1.70;1.42;;;20.40;49.30;;;;;;2290162;62;20304;-65
2021/12/03 21:15:11;;;;;;;1.80;1.33;;;20.40;49.20;;;;;;2289755;62;20261;-65
2021/12/03 21:20:23;;;;;;;1.70;1.10;;;20.50;49.00;;;;;;2291578;62;20189;-68
2021/12/03 21:22:53;;;;;;;2.10;1.30;;;20.50;48.90;;;;;;2284218;62;20680;-65
2021/12/03 21:25:22;;;;;;;1.98;1.40;;;20.50;48.80;;;;;;2284234;62;20299;-65
2021/12/03 21:30:39;;;;;;;1.83;1.30;;;20.60;48.70;;;;;;2292860;62;20169;-65
2021/12/03 21:43:58;;;;;;;2.20;1.40;;;20.50;48.40;;;;;;2292759;62;20187;-65
2021/12/03 21:46:26;;;;;;;1.58;1.10;;;20.60;48.30;;;;;;2288868;62;20166;-64
2021/12/03 21:48:53;;;;;;;1.75;1.20;;;20.60;48.30;;;;;;2287317;62;20268;-65
2021/12/03 21:51:20;;;;;;;1.88;1.45;;;20.50;48.10;;;;;;2287177;62;20645;-65
2021/12/03 21:53:47;;;;;;;2.45;1.00;;;20.60;48.20;;;;;;2287211;62;20739;-64
2021/12/03 21:56:13;;;;;;;2.10;1.15;;;20.60;48.10;;;;;;2287190;62;20161;-64
2021/12/03 21:58:39;;;;;;;3.65;1.10;;;20.60;48.10;;;;;;2287208;62;20250;-65
2021/12/03 22:01:05;;;;;;;2.05;1.00;;;20.60;48.00;;;;;;2287240;62;20221;-65
2021/12/03 22:03:32;;;;;;;1.13;0.98;;;20.70;48.10;;;;;;2287169;62;20158;-65
2021/12/03 22:06:00;;;;;;;2.13;1.30;;;20.60;47.90;;;;;;2287142;62;20178;-64
2021/12/03 22:08:26;;;;;;;1.63;1.45;;;20.60;47.90;;;;;;2287130;62;20245;-65
2021/12/03 22:10:52;;;;;;;1.30;1.00;;;20.70;47.90;;;;;;2287181;62;20170;-65
2021/12/03 22:13:23;;;;;;;1.92;1.23;;;20.60;47.80;;;;;;2287180;62;20154;-65
2021/12/03 22:15:54;;;;;;;2.38;1.58;;;20.60;47.80;;;;;;2287185;62;20158;-65
2021/12/03 22:18:21;;;;;;;1.40;1.30;;;20.70;47.80;;;;;;2287063;62;20678;-64
2021/12/03 22:21:13;;;;;;;1.23;1.13;;;20.60;47.80;;;;;;2287167;62;20188;-65
2021/12/03 22:23:42;;;;;;;1.05;0.95;;;20.70;47.70;;;;;;2285278;62;20277;-64
2021/12/03 22:26:10;;;;;;;2.65;0.90;;;20.70;47.80;;;;;;2287048;62;20162;-65
2021/12/03 22:28:36;;;;;;;1.13;1.00;;;20.60;47.70;;;;;;2287095;62;20201;-66
2021/12/03 22:31:03;;;;;;;1.38;1.00;;;20.70;47.70;;;;;;2286991;62;20250;-65
2021/12/03 22:33:29;;;;;;;1.23;0.90;;;20.60;47.70;;;;;;2286830;62;20279;-65
2021/12/03 22:35:55;;;;;;;1.00;0.90;;;20.60;47.70;;;;;;2287025;62;20220;-65
2021/12/03 22:38:22;;;;;;;1.90;0.80;;;20.60;47.70;;;;;;2287007;62;20200;-66
2021/12/03 22:40:50;;;;;;;1.33;1.00;;;20.60;47.70;;;;;;2286974;62;20174;-65
2021/12/03 22:43:16;;;;;;;1.10;1.00;;;20.60;47.70;;;;;;2287020;62;20610;-65
2021/12/03 22:53:40;;;;;;;1.20;0.90;;;20.60;47.70;;;;;;2286798;62;20184;-65
2021/12/03 22:56:07;;;;;;;1.38;0.90;;;20.60;47.70;;;;;;2286939;62;20221;-65
2021/12/03 22:58:33;;;;;;;1.40;1.13;;;20.60;47.70;;;;;;2286444;62;20547;-65
2021/12/03 23:01:18;;;;;;;2.30;1.00;;;20.60;47.70;;;;;;2286807;62;20173;-65
2021/12/03 23:03:44;;;;;;;0.98;0.88;;;20.60;47.60;;;;;;2286834;62;20169;-65
2021/12/03 23:06:10;;;;;;;1.42;1.00;;;20.60;47.70;;;;;;2286845;62;20174;-65
2021/12/03 23:08:37;;;;;;;1.17;0.98;;;20.70;47.70;;;;;;2286841;62;20643;-65
2021/12/03 23:11:03;;;;;;;1.05;0.93;;;20.70;47.70;;;;;;2286840;62;20177;-65
2021/12/03 23:13:33;;;;;;;1.20;1.05;;;20.60;47.60;;;;;;2286685;62;20169;-65
2021/12/03 23:15:59;;;;;;;1.23;0.88;;;20.60;47.60;;;;;;2286772;62;20184;-65
2021/12/03 23:18:25;;;;;;;1.23;0.98;;;20.60;47.60;;;;;;2286802;62;20146;-65
2021/12/03 23:20:52;;;;;;;2.22;1.10;;;20.60;47.60;;;;;;2286782;62;20768;-64
2021/12/03 23:23:24;;;;;;;1.92;0.82;;;20.60;47.60;;;;;;2286689;62;20659;-64
2021/12/03 23:25:53;;;;;;;1.58;1.00;;;20.50;47.50;;;;;;2286740;62;20375;-65
2021/12/03 23:28:21;;;;;;;0.90;0.90;;;20.50;47.60;;;;;;2286710;62;20178;-65
2021/12/03 23:30:48;;;;;;;2.80;1.08;;;20.50;47.60;;;;;;2286681;62;20310;-66